sensor_id;sensor_type;location;lat;lon;timestamp;P1;durP1;ratioP1;P2;durP2;ratioP2
78453;SDS011;67750;55.832;49.124;2023-03-14T00:01:30;3.35;;;1.00;;
78453;SDS011;67750;55.832;49.124;2023-03-14T00:04:00;2.60;;;0.70;;
78453;SDS011;67750;55.832;49.124;2023-03-14T00:06:29;2.02;;;0.80;;
78453;SDS011;67750;55.832;49.124;2023-03-14T00:08:59;2.10;;;0.78;;
78453;SDS011;67750;55.832;49.124;2023-03-14T00:11:28;2.42;;;1.07;;
78453;SDS011;67750;55.832;49.124;2023-03-14T00:13:58;1.98;;;1.02;;
78453;SDS011;67750;55.832;49.124;2023-03-14T00:16:27;2.37;;;1.10;;
78453;SDS011;67750;55.832;49.124;2023-03-14T00:18:58;1.85;;;1.00;;
78453;SDS011;67750;55.832;49.124;2023-03-14T00:21:27;3.83;;;0.98;;
78453;SDS011;67750;55.832;49.124;2023-03-14T00:23:57;4.08;;;1.25;;
78453;SDS011;67750;55.832;49.124;2023-03-14T00:26:26;2.00;;;1.00;;
78453;SDS011;67750;55.832;49.124;2023-03-14T00:28:55;4.42;;;1.25;;
78453;SDS011;67750;55.832;49.124;2023-03-14T00:31:25;2.67;;;1.22;;
78453;SDS011;67750;55.832;49.124;2023-03-14T00:33:54;3.22;;;1.02;;
78453;SDS011;67750;55.832;49.124;2023-03-14T00:36:24;2.45;;;1.00;;
78453;SDS011;67750;55.832;49.124;2023-03-14T00:38:54;2.85;;;0.98;;
78453;SDS011;67750;55.832;49.124;2023-03-14T00:41:24;3.00;;;1.17;;
78453;SDS011;67750;55.832;49.124;2023-03-14T00:43:53;3.92;;;1.20;;
78453;SDS011;67750;55.832;49.124;2023-03-14T00:46:22;3.10;;;1.15;;
78453;SDS011;67750;55.832;49.124;2023-03-14T00:48:52;3.40;;;1.30;;
78453;SDS011;67750;55.832;49.124;2023-03-14T00:51:23;2.05;;;0.98;;
78453;SDS011;67750;55.832;49.124;2023-03-14T00:53:52;3.15;;;1.25;;
78453;SDS011;67750;55.832;49.124;2023-03-14T00:56:22;3.30;;;1.40;;
78453;SDS011;67750;55.832;49.124;2023-03-14T01:01:41;4.10;;;1.32;;
78453;SDS011;67750;55.832;49.124;2023-03-14T01:04:11;3.52;;;1.20;;
78453;SDS011;67750;55.832;49.124;2023-03-14T01:06:41;3.70;;;1.32;;
78453;SDS011;67750;55.832;49.124;2023-03-14T01:09:10;2.67;;;1.20;;
78453;SDS011;67750;55.832;49.124;2023-03-14T01:11:41;2.17;;;1.05;;
78453;SDS011;67750;55.832;49.124;2023-03-14T01:14:12;4.30;;;1.77;;
78453;SDS011;67750;55.832;49.124;2023-03-14T01:16:42;3.22;;;1.10;;
78453;SDS011;67750;55.832;49.124;2023-03-14T01:19:11;3.70;;;1.50;;
78453;SDS011;67750;55.832;49.124;2023-03-14T01:21:41;3.65;;;1.20;;
78453;SDS011;67750;55.832;49.124;2023-03-14T01:24:10;2.67;;;1.30;;
78453;SDS011;67750;55.832;49.124;2023-03-14T01:26:40;2.72;;;1.50;;
78453;SDS011;67750;55.832;49.124;2023-03-14T01:29:09;3.42;;;1.45;;
78453;SDS011;67750;55.832;49.124;2023-03-14T01:31:40;3.27;;;1.25;;
78453;SDS011;67750;55.832;49.124;2023-03-14T01:34:09;2.67;;;1.30;;
78453;SDS011;67750;55.832;49.124;2023-03-14T01:36:39;3.62;;;1.45;;
78453;SDS011;67750;55.832;49.124;2023-03-14T01:39:08;3.58;;;1.52;;
78453;SDS011;67750;55.832;49.124;2023-03-14T01:41:38;5.15;;;1.72;;
78453;SDS011;67750;55.832;49.124;2023-03-14T01:58:01;4.72;;;1.80;;
78453;SDS011;67750;55.832;49.124;2023-03-14T02:00:32;4.40;;;1.72;;
78453;SDS011;67750;55.832;49.124;2023-03-14T02:03:02;3.50;;;1.50;;
78453;SDS011;67750;55.832;49.124;2023-03-14T02:05:34;3.55;;;1.80;;
78453;SDS011;67750;55.832;49.124;2023-03-14T02:08:24;3.22;;;1.67;;
78453;SDS011;67750;55.832;49.124;2023-03-14T02:10:55;3.42;;;1.60;;
78453;SDS011;67750;55.832;49.124;2023-03-14T02:13:27;4.67;;;1.90;;
78453;SDS011;67750;55.832;49.124;2023-03-14T02:16:16;3.90;;;1.95;;
78453;SDS011;67750;55.832;49.124;2023-03-14T02:19:05;3.60;;;2.12;;
78453;SDS011;67750;55.832;49.124;2023-03-14T02:22:30;4.62;;;2.45;;
78453;SDS011;67750;55.832;49.124;2023-03-14T02:25:03;4.97;;;2.37;;
78453;SDS011;67750;55.832;49.124;2023-03-14T02:29:52;5.20;;;3.05;;
78453;SDS011;67750;55.832;49.124;2023-03-14T02:32:22;4.58;;;2.67;;
78453;SDS011;67750;55.832;49.124;2023-03-14T02:34:54;5.30;;;2.52;;
78453;SDS011;67750;55.832;49.124;2023-03-14T02:37:25;5.45;;;2.90;;
78453;SDS011;67750;55.832;49.124;2023-03-14T02:39:54;7.55;;;3.12;;
78453;SDS011;67750;55.832;49.124;2023-03-14T02:42:24;5.10;;;2.72;;
78453;SDS011;67750;55.832;49.124;2023-03-14T02:44:57;5.67;;;3.05;;
78453;SDS011;67750;55.832;49.124;2023-03-14T02:47:27;3.77;;;2.27;;
78453;SDS011;67750;55.832;49.124;2023-03-14T02:49:59;4.05;;;2.08;;
78453;SDS011;67750;55.832;49.124;2023-03-14T02:52:29;4.42;;;2.20;;
78453;SDS011;67750;55.832;49.124;2023-03-14T02:54:59;4.37;;;1.95;;
78453;SDS011;67750;55.832;49.124;2023-03-14T02:57:28;4.05;;;1.55;;
78453;SDS011;67750;55.832;49.124;2023-03-14T02:59:58;4.53;;;2.05;;
78453;SDS011;67750;55.832;49.124;2023-03-14T03:02:28;5.20;;;2.10;;
78453;SDS011;67750;55.832;49.124;2023-03-14T03:04:58;4.40;;;2.30;;
78453;SDS011;67750;55.832;49.124;2023-03-14T03:07:27;3.27;;;1.98;;
78453;SDS011;67750;55.832;49.124;2023-03-14T03:09:57;4.33;;;2.17;;
78453;SDS011;67750;55.832;49.124;2023-03-14T03:12:27;4.12;;;2.02;;
78453;SDS011;67750;55.832;49.124;2023-03-14T03:14:56;3.87;;;2.25;;
78453;SDS011;67750;55.832;49.124;2023-03-14T03:17:26;5.58;;;2.62;;
78453;SDS011;67750;55.832;49.124;2023-03-14T03:19:55;5.00;;;2.67;;
78453;SDS011;67750;55.832;49.124;2023-03-14T03:22:25;5.28;;;2.98;;
78453;SDS011;67750;55.832;49.124;2023-03-14T03:24:54;5.62;;;2.50;;
78453;SDS011;67750;55.832;49.124;2023-03-14T03:27:24;6.70;;;3.33;;
78453;SDS011;67750;55.832;49.124;2023-03-14T03:29:53;6.67;;;3.47;;
78453;SDS011;67750;55.832;49.124;2023-03-14T03:32:23;10.63;;;3.45;;
78453;SDS011;67750;55.832;49.124;2023-03-14T03:34:52;6.62;;;3.37;;
78453;SDS011;67750;55.832;49.124;2023-03-14T03:37:22;6.67;;;4.22;;
78453;SDS011;67750;55.832;49.124;2023-03-14T03:39:51;6.40;;;3.30;;
78453;SDS011;67750;55.832;49.124;2023-03-14T03:42:21;5.90;;;3.80;;
78453;SDS011;67750;55.832;49.124;2023-03-14T03:44:50;8.30;;;3.77;;
78453;SDS011;67750;55.832;49.124;2023-03-14T03:47:21;7.67;;;3.70;;
78453;SDS011;67750;55.832;49.124;2023-03-14T03:49:51;7.20;;;3.40;;
78453;SDS011;67750;55.832;49.124;2023-03-14T03:52:21;5.28;;;3.22;;
78453;SDS011;67750;55.832;49.124;2023-03-14T03:54:50;5.85;;;2.98;;
78453;SDS011;67750;55.832;49.124;2023-03-14T03:57:19;6.92;;;3.33;;
78453;SDS011;67750;55.832;49.124;2023-03-14T03:59:50;8.23;;;3.05;;
78453;SDS011;67750;55.832;49.124;2023-03-14T04:02:19;4.65;;;2.92;;
78453;SDS011;67750;55.832;49.124;2023-03-14T04:04:50;4.75;;;2.65;;
78453;SDS011;67750;55.832;49.124;2023-03-14T04:07:20;5.80;;;2.80;;
78453;SDS011;67750;55.832;49.124;2023-03-14T04:09:49;3.67;;;2.20;;
78453;SDS011;67750;55.832;49.124;2023-03-14T04:12:39;4.15;;;2.40;;
78453;SDS011;67750;55.832;49.124;2023-03-14T04:15:28;5.97;;;2.37;;
78453;SDS011;67750;55.832;49.124;2023-03-14T04:17:59;6.50;;;2.95;;
78453;SDS011;67750;55.832;49.124;2023-03-14T04:20:30;4.72;;;2.62;;
78453;SDS011;67750;55.832;49.124;2023-03-14T04:22:59;5.30;;;2.83;;
78453;SDS011;67750;55.832;49.124;2023-03-14T04:25:29;14.20;;;3.67;;
78453;SDS011;67750;55.832;49.124;2023-03-14T04:28:00;7.17;;;3.12;;
78453;SDS011;67750;55.832;49.124;2023-03-14T04:30:32;6.80;;;3.22;;
78453;SDS011;67750;55.832;49.124;2023-03-14T04:33:04;9.18;;;3.33;;
78453;SDS011;67750;55.832;49.124;2023-03-14T04:38:05;5.50;;;3.70;;
78453;SDS011;67750;55.832;49.124;2023-03-14T04:43:26;6.28;;;3.27;;
78453;SDS011;67750;55.832;49.124;2023-03-14T04:45:58;8.05;;;3.60;;
78453;SDS011;67750;55.832;49.124;2023-03-14T04:48:28;6.60;;;3.60;;
78453;SDS011;67750;55.832;49.124;2023-03-14T04:53:31;7.00;;;3.50;;
78453;SDS011;67750;55.832;49.124;2023-03-14T04:56:03;6.05;;;3.67;;
78453;SDS011;67750;55.832;49.124;2023-03-14T04:58:52;5.65;;;3.10;;
78453;SDS011;67750;55.832;49.124;2023-03-14T05:01:21;7.50;;;3.42;;
78453;SDS011;67750;55.832;49.124;2023-03-14T05:04:11;5.30;;;3.05;;
78453;SDS011;67750;55.832;49.124;2023-03-14T05:07:00;6.87;;;3.70;;
78453;SDS011;67750;55.832;49.124;2023-03-14T05:09:49;7.17;;;3.15;;
78453;SDS011;67750;55.832;49.124;2023-03-14T05:12:39;7.12;;;3.27;;
78453;SDS011;67750;55.832;49.124;2023-03-14T05:15:29;6.22;;;3.27;;
78453;SDS011;67750;55.832;49.124;2023-03-14T05:18:00;5.90;;;3.17;;
78453;SDS011;67750;55.832;49.124;2023-03-14T05:21:24;6.67;;;3.40;;
78453;SDS011;67750;55.832;49.124;2023-03-14T05:23:40;5.25;;;3.42;;
78453;SDS011;67750;55.832;49.124;2023-03-14T05:26:30;5.15;;;3.42;;
78453;SDS011;67750;55.832;49.124;2023-03-14T05:29:19;6.85;;;3.62;;
78453;SDS011;67750;55.832;49.124;2023-03-14T05:32:08;6.20;;;3.62;;
78453;SDS011;67750;55.832;49.124;2023-03-14T05:34:58;6.80;;;2.90;;
78453;SDS011;67750;55.832;49.124;2023-03-14T05:37:29;8.08;;;3.33;;
78453;SDS011;67750;55.832;49.124;2023-03-14T05:40:18;5.35;;;3.20;;
78453;SDS011;67750;55.832;49.124;2023-03-14T05:42:50;6.80;;;3.40;;
78453;SDS011;67750;55.832;49.124;2023-03-14T05:45:21;7.92;;;3.40;;
78453;SDS011;67750;55.832;49.124;2023-03-14T05:47:52;6.45;;;3.30;;
78453;SDS011;67750;55.832;49.124;2023-03-14T05:50:23;5.15;;;3.52;;
78453;SDS011;67750;55.832;49.124;2023-03-14T05:53:12;7.62;;;3.20;;
78453;SDS011;67750;55.832;49.124;2023-03-14T05:56:02;5.03;;;2.77;;
78453;SDS011;67750;55.832;49.124;2023-03-14T05:58:33;5.53;;;2.98;;
78453;SDS011;67750;55.832;49.124;2023-03-14T06:01:22;6.62;;;3.50;;
78453;SDS011;67750;55.832;49.124;2023-03-14T06:04:12;5.75;;;3.35;;
78453;SDS011;67750;55.832;49.124;2023-03-14T06:06:43;4.87;;;3.30;;
78453;SDS011;67750;55.832;49.124;2023-03-14T06:09:13;5.20;;;3.40;;
78453;SDS011;67750;55.832;49.124;2023-03-14T06:11:43;4.80;;;3.17;;
78453;SDS011;67750;55.832;49.124;2023-03-14T06:14:13;3.85;;;2.52;;
78453;SDS011;67750;55.832;49.124;2023-03-14T06:16:44;4.45;;;2.90;;
78453;SDS011;67750;55.832;49.124;2023-03-14T06:19:17;6.28;;;2.95;;
78453;SDS011;67750;55.832;49.124;2023-03-14T06:21:46;5.92;;;4.00;;
78453;SDS011;67750;55.832;49.124;2023-03-14T06:24:16;5.12;;;2.95;;
78453;SDS011;67750;55.832;49.124;2023-03-14T06:26:46;5.05;;;3.05;;
78453;SDS011;67750;55.832;49.124;2023-03-14T06:29:16;4.65;;;3.05;;
78453;SDS011;67750;55.832;49.124;2023-03-14T06:31:45;4.15;;;2.98;;
78453;SDS011;67750;55.832;49.124;2023-03-14T06:34:15;3.27;;;2.37;;
78453;SDS011;67750;55.832;49.124;2023-03-14T06:36:45;5.42;;;3.25;;
78453;SDS011;67750;55.832;49.124;2023-03-14T06:39:15;5.12;;;2.83;;
78453;SDS011;67750;55.832;49.124;2023-03-14T06:41:45;4.80;;;3.00;;
78453;SDS011;67750;55.832;49.124;2023-03-14T06:44:15;5.47;;;3.30;;
78453;SDS011;67750;55.832;49.124;2023-03-14T06:46:44;7.17;;;4.17;;
78453;SDS011;67750;55.832;49.124;2023-03-14T06:49:14;7.15;;;4.10;;
78453;SDS011;67750;55.832;49.124;2023-03-14T06:51:43;4.25;;;2.75;;
78453;SDS011;67750;55.832;49.124;2023-03-14T06:54:13;5.92;;;3.40;;
78453;SDS011;67750;55.832;49.124;2023-03-14T06:56:43;8.80;;;4.30;;
78453;SDS011;67750;55.832;49.124;2023-03-14T06:59:13;6.35;;;3.92;;
78453;SDS011;67750;55.832;49.124;2023-03-14T07:01:44;4.95;;;3.10;;
78453;SDS011;67750;55.832;49.124;2023-03-14T07:04:16;6.83;;;2.65;;
78453;SDS011;67750;55.832;49.124;2023-03-14T07:06:47;6.78;;;3.10;;
78453;SDS011;67750;55.832;49.124;2023-03-14T07:09:17;6.92;;;3.85;;
78453;SDS011;67750;55.832;49.124;2023-03-14T07:12:06;4.95;;;2.27;;
78453;SDS011;67750;55.832;49.124;2023-03-14T07:14:36;5.25;;;2.70;;
78453;SDS011;67750;55.832;49.124;2023-03-14T07:17:06;4.45;;;3.47;;
78453;SDS011;67750;55.832;49.124;2023-03-14T07:19:35;4.30;;;2.15;;
78453;SDS011;67750;55.832;49.124;2023-03-14T07:22:05;5.40;;;1.65;;
78453;SDS011;67750;55.832;49.124;2023-03-14T07:24:34;3.87;;;2.20;;
78453;SDS011;67750;55.832;49.124;2023-03-14T07:27:04;4.20;;;2.72;;
78453;SDS011;67750;55.832;49.124;2023-03-14T07:29:34;3.12;;;2.02;;
78453;SDS011;67750;55.832;49.124;2023-03-14T07:32:03;4.28;;;2.47;;
78453;SDS011;67750;55.832;49.124;2023-03-14T07:34:33;4.97;;;2.15;;
78453;SDS011;67750;55.832;49.124;2023-03-14T07:37:05;5.33;;;2.00;;
78453;SDS011;67750;55.832;49.124;2023-03-14T07:39:35;6.65;;;2.33;;
78453;SDS011;67750;55.832;49.124;2023-03-14T07:44:54;4.15;;;1.95;;
78453;SDS011;67750;55.832;49.124;2023-03-14T07:47:23;3.12;;;2.10;;
78453;SDS011;67750;55.832;49.124;2023-03-14T07:49:53;2.58;;;1.82;;
78453;SDS011;67750;55.832;49.124;2023-03-14T07:52:22;2.75;;;1.60;;
78453;SDS011;67750;55.832;49.124;2023-03-14T07:54:52;5.85;;;2.20;;
78453;SDS011;67750;55.832;49.124;2023-03-14T07:57:21;4.50;;;1.75;;
78453;SDS011;67750;55.832;49.124;2023-03-14T07:59:51;3.15;;;1.98;;
78453;SDS011;67750;55.832;49.124;2023-03-14T08:02:21;2.98;;;1.90;;
78453;SDS011;67750;55.832;49.124;2023-03-14T08:04:51;3.35;;;1.85;;
78453;SDS011;67750;55.832;49.124;2023-03-14T08:07:20;3.62;;;1.90;;
78453;SDS011;67750;55.832;49.124;2023-03-14T08:09:50;5.30;;;2.00;;
78453;SDS011;67750;55.832;49.124;2023-03-14T08:12:19;3.12;;;1.80;;
78453;SDS011;67750;55.832;49.124;2023-03-14T08:14:49;4.28;;;1.67;;
78453;SDS011;67750;55.832;49.124;2023-03-14T08:17:18;4.35;;;1.90;;
78453;SDS011;67750;55.832;49.124;2023-03-14T08:19:47;3.65;;;2.05;;
78453;SDS011;67750;55.832;49.124;2023-03-14T08:22:17;3.10;;;2.00;;
78453;SDS011;67750;55.832;49.124;2023-03-14T08:24:46;4.65;;;2.47;;
78453;SDS011;67750;55.832;49.124;2023-03-14T08:27:16;3.22;;;1.80;;
78453;SDS011;67750;55.832;49.124;2023-03-14T08:29:45;3.92;;;2.30;;
78453;SDS011;67750;55.832;49.124;2023-03-14T08:32:15;3.33;;;2.10;;
78453;SDS011;67750;55.832;49.124;2023-03-14T08:34:44;2.87;;;1.55;;
78453;SDS011;67750;55.832;49.124;2023-03-14T08:37:13;3.50;;;1.87;;
78453;SDS011;67750;55.832;49.124;2023-03-14T08:39:43;5.22;;;1.60;;
78453;SDS011;67750;55.832;49.124;2023-03-14T08:42:12;3.80;;;2.00;;
78453;SDS011;67750;55.832;49.124;2023-03-14T08:44:42;2.90;;;2.02;;
78453;SDS011;67750;55.832;49.124;2023-03-14T08:47:11;3.33;;;2.10;;
78453;SDS011;67750;55.832;49.124;2023-03-14T08:49:41;4.37;;;2.10;;
78453;SDS011;67750;55.832;49.124;2023-03-14T08:52:10;4.28;;;2.00;;
78453;SDS011;67750;55.832;49.124;2023-03-14T08:54:40;5.70;;;2.20;;
78453;SDS011;67750;55.832;49.124;2023-03-14T08:57:09;4.05;;;2.15;;
78453;SDS011;67750;55.832;49.124;2023-03-14T08:59:39;4.08;;;2.10;;
78453;SDS011;67750;55.832;49.124;2023-03-14T09:02:09;3.20;;;1.90;;
78453;SDS011;67750;55.832;49.124;2023-03-14T09:04:39;3.90;;;2.00;;
78453;SDS011;67750;55.832;49.124;2023-03-14T09:07:09;5.72;;;1.85;;
78453;SDS011;67750;55.832;49.124;2023-03-14T09:09:38;3.77;;;2.27;;
78453;SDS011;67750;55.832;49.124;2023-03-14T09:12:08;8.28;;;2.37;;
78453;SDS011;67750;55.832;49.124;2023-03-14T09:14:37;3.47;;;1.92;;
78453;SDS011;67750;55.832;49.124;2023-03-14T09:17:07;3.83;;;1.90;;
78453;SDS011;67750;55.832;49.124;2023-03-14T09:19:36;5.47;;;2.17;;
78453;SDS011;67750;55.832;49.124;2023-03-14T09:22:06;5.55;;;2.50;;
78453;SDS011;67750;55.832;49.124;2023-03-14T09:24:36;3.70;;;1.77;;
78453;SDS011;67750;55.832;49.124;2023-03-14T09:27:06;4.75;;;2.12;;
78453;SDS011;67750;55.832;49.124;2023-03-14T09:29:35;3.45;;;1.82;;
78453;SDS011;67750;55.832;49.124;2023-03-14T09:32:04;6.17;;;2.33;;
78453;SDS011;67750;55.832;49.124;2023-03-14T09:34:34;5.05;;;2.50;;
78453;SDS011;67750;55.832;49.124;2023-03-14T09:37:03;4.55;;;2.20;;
78453;SDS011;67750;55.832;49.124;2023-03-14T09:39:33;2.98;;;1.72;;
78453;SDS011;67750;55.832;49.124;2023-03-14T09:42:03;3.83;;;2.15;;
78453;SDS011;67750;55.832;49.124;2023-03-14T09:47:23;3.25;;;1.40;;
78453;SDS011;67750;55.832;49.124;2023-03-14T09:49:52;3.33;;;1.50;;
78453;SDS011;67750;55.832;49.124;2023-03-14T09:54:53;3.65;;;1.90;;
78453;SDS011;67750;55.832;49.124;2023-03-14T09:57:58;4.50;;;1.70;;
78453;SDS011;67750;55.832;49.124;2023-03-14T10:02:27;2.35;;;1.22;;
78453;SDS011;67750;55.832;49.124;2023-03-14T10:04:56;4.22;;;1.65;;
78453;SDS011;67750;55.832;49.124;2023-03-14T10:07:57;2.87;;;1.60;;
78453;SDS011;67750;55.832;49.124;2023-03-14T10:09:57;3.47;;;1.37;;
78453;SDS011;67750;55.832;49.124;2023-03-14T10:15:22;2.85;;;1.45;;
78453;SDS011;67750;55.832;49.124;2023-03-14T10:17:47;1.65;;;1.15;;
78453;SDS011;67750;55.832;49.124;2023-03-14T10:21:00;2.60;;;1.12;;
78453;SDS011;67750;55.832;49.124;2023-03-14T10:22:49;2.12;;;1.10;;
78453;SDS011;67750;55.832;49.124;2023-03-14T10:30:58;4.00;;;1.90;;
78453;SDS011;67750;55.832;49.124;2023-03-14T10:33:29;3.77;;;1.67;;
78453;SDS011;67750;55.832;49.124;2023-03-14T10:36:00;3.87;;;1.80;;
78453;SDS011;67750;55.832;49.124;2023-03-14T10:44:10;5.33;;;1.62;;
78453;SDS011;67750;55.832;49.124;2023-03-14T10:46:41;2.33;;;1.20;;
78453;SDS011;67750;55.832;49.124;2023-03-14T10:49:31;2.27;;;1.10;;
78453;SDS011;67750;55.832;49.124;2023-03-14T10:52:02;2.40;;;1.02;;
78453;SDS011;67750;55.832;49.124;2023-03-14T10:54:32;1.70;;;1.05;;
78453;SDS011;67750;55.832;49.124;2023-03-14T10:57:01;2.35;;;1.32;;
78453;SDS011;67750;55.832;49.124;2023-03-14T11:00:08;3.55;;;1.50;;
78453;SDS011;67750;55.832;49.124;2023-03-14T11:07:44;2.58;;;1.22;;
78453;SDS011;67750;55.832;49.124;2023-03-14T11:15:57;2.50;;;1.25;;
78453;SDS011;67750;55.832;49.124;2023-03-14T11:35:05;2.42;;;1.52;;
78453;SDS011;67750;55.832;49.124;2023-03-14T11:37:36;3.65;;;2.12;;
78453;SDS011;67750;55.832;49.124;2023-03-14T11:42:37;4.72;;;2.00;;
78453;SDS011;67750;55.832;49.124;2023-03-14T11:45:39;5.40;;;2.40;;
78453;SDS011;67750;55.832;49.124;2023-03-14T11:47:39;4.22;;;1.85;;
78453;SDS011;67750;55.832;49.124;2023-03-14T11:53:01;3.87;;;1.60;;
78453;SDS011;67750;55.832;49.124;2023-03-14T11:55:31;3.77;;;2.08;;
78453;SDS011;67750;55.832;49.124;2023-03-14T11:58:01;3.87;;;1.57;;
78453;SDS011;67750;55.832;49.124;2023-03-14T12:00:31;4.62;;;2.00;;
78453;SDS011;67750;55.832;49.124;2023-03-14T12:08:42;4.58;;;1.82;;
78453;SDS011;67750;55.832;49.124;2023-03-14T12:14:00;3.75;;;1.80;;
78453;SDS011;67750;55.832;49.124;2023-03-14T12:16:31;3.58;;;1.80;;
78453;SDS011;67750;55.832;49.124;2023-03-14T12:21:50;4.95;;;2.05;;
78453;SDS011;67750;55.832;49.124;2023-03-14T12:27:11;5.00;;;2.40;;
78453;SDS011;67750;55.832;49.124;2023-03-14T12:32:32;6.55;;;2.17;;
78453;SDS011;67750;55.832;49.124;2023-03-14T12:35:07;2.70;;;1.60;;
78453;SDS011;67750;55.832;49.124;2023-03-14T12:40:26;3.80;;;1.95;;
78453;SDS011;67750;55.832;49.124;2023-03-14T12:45:42;4.28;;;2.42;;
78453;SDS011;67750;55.832;49.124;2023-03-14T12:51:03;4.17;;;1.95;;
78453;SDS011;67750;55.832;49.124;2023-03-14T13:04:34;8.10;;;2.55;;
78453;SDS011;67750;55.832;49.124;2023-03-14T13:09:36;4.42;;;1.80;;
78453;SDS011;67750;55.832;49.124;2023-03-14T13:14:58;3.00;;;1.55;;
78453;SDS011;67750;55.832;49.124;2023-03-14T13:25:58;4.67;;;1.90;;
78453;SDS011;67750;55.832;49.124;2023-03-14T13:28:29;4.05;;;2.20;;
78453;SDS011;67750;55.832;49.124;2023-03-14T13:31:00;3.12;;;1.67;;
78453;SDS011;67750;55.832;49.124;2023-03-14T13:33:32;5.90;;;1.82;;
78453;SDS011;67750;55.832;49.124;2023-03-14T13:38:34;4.80;;;2.30;;
78453;SDS011;67750;55.832;49.124;2023-03-14T13:41:05;5.67;;;2.25;;
78453;SDS011;67750;55.832;49.124;2023-03-14T13:46:24;5.40;;;2.08;;
78453;SDS011;67750;55.832;49.124;2023-03-14T13:51:43;4.37;;;1.85;;
78453;SDS011;67750;55.832;49.124;2023-03-14T13:57:02;4.03;;;1.80;;
78453;SDS011;67750;55.832;49.124;2023-03-14T13:59:33;3.05;;;1.75;;
78453;SDS011;67750;55.832;49.124;2023-03-14T14:02:04;5.42;;;2.00;;
78453;SDS011;67750;55.832;49.124;2023-03-14T14:04:35;4.53;;;2.12;;
78453;SDS011;67750;55.832;49.124;2023-03-14T14:09:54;4.20;;;1.65;;
78453;SDS011;67750;55.832;49.124;2023-03-14T14:18:04;2.60;;;1.32;;
78453;SDS011;67750;55.832;49.124;2023-03-14T14:20:37;4.85;;;2.17;;
78453;SDS011;67750;55.832;49.124;2023-03-14T14:25:56;4.10;;;2.02;;
78453;SDS011;67750;55.832;49.124;2023-03-14T14:31:17;3.45;;;1.90;;
78453;SDS011;67750;55.832;49.124;2023-03-14T14:39:26;3.62;;;1.87;;
78453;SDS011;67750;55.832;49.124;2023-03-14T14:41:57;3.80;;;1.52;;
78453;SDS011;67750;55.832;49.124;2023-03-14T14:44:28;4.40;;;1.90;;
78453;SDS011;67750;55.832;49.124;2023-03-14T14:46:58;3.87;;;1.82;;
78453;SDS011;67750;55.832;49.124;2023-03-14T14:49:29;2.62;;;1.90;;
78453;SDS011;67750;55.832;49.124;2023-03-14T14:57:38;3.37;;;1.77;;
78453;SDS011;67750;55.832;49.124;2023-03-14T15:00:48;3.50;;;1.70;;
78453;SDS011;67750;55.832;49.124;2023-03-14T15:02:41;4.20;;;2.08;;
78453;SDS011;67750;55.832;49.124;2023-03-14T15:05:31;2.92;;;1.92;;
78453;SDS011;67750;55.832;49.124;2023-03-14T15:08:02;6.42;;;2.22;;
78453;SDS011;67750;55.832;49.124;2023-03-14T15:10:31;5.15;;;2.02;;
78453;SDS011;67750;55.832;49.124;2023-03-14T15:13:00;6.12;;;1.75;;
78453;SDS011;67750;55.832;49.124;2023-03-14T15:15:30;3.65;;;1.98;;
78453;SDS011;67750;55.832;49.124;2023-03-14T15:18:01;4.35;;;2.33;;
78453;SDS011;67750;55.832;49.124;2023-03-14T15:20:30;2.95;;;1.70;;
78453;SDS011;67750;55.832;49.124;2023-03-14T15:23:00;3.55;;;1.87;;
78453;SDS011;67750;55.832;49.124;2023-03-14T15:25:29;4.58;;;2.30;;
78453;SDS011;67750;55.832;49.124;2023-03-14T15:27:59;5.87;;;2.40;;
78453;SDS011;67750;55.832;49.124;2023-03-14T15:30:28;4.50;;;2.47;;
78453;SDS011;67750;55.832;49.124;2023-03-14T15:32:58;4.12;;;2.30;;
78453;SDS011;67750;55.832;49.124;2023-03-14T15:35:27;4.72;;;2.20;;
78453;SDS011;67750;55.832;49.124;2023-03-14T15:37:56;6.53;;;2.67;;
78453;SDS011;67750;55.832;49.124;2023-03-14T15:40:26;6.37;;;2.20;;
78453;SDS011;67750;55.832;49.124;2023-03-14T15:42:55;5.10;;;2.05;;
78453;SDS011;67750;55.832;49.124;2023-03-14T15:45:25;4.85;;;2.12;;
78453;SDS011;67750;55.832;49.124;2023-03-14T15:47:54;6.45;;;2.00;;
78453;SDS011;67750;55.832;49.124;2023-03-14T15:50:23;5.95;;;2.12;;
78453;SDS011;67750;55.832;49.124;2023-03-14T15:52:53;6.45;;;2.40;;
78453;SDS011;67750;55.832;49.124;2023-03-14T15:55:23;4.92;;;1.82;;
78453;SDS011;67750;55.832;49.124;2023-03-14T15:57:52;3.62;;;1.85;;
78453;SDS011;67750;55.832;49.124;2023-03-14T16:00:22;5.95;;;2.20;;
78453;SDS011;67750;55.832;49.124;2023-03-14T16:02:51;5.17;;;1.98;;
78453;SDS011;67750;55.832;49.124;2023-03-14T16:05:21;4.47;;;1.80;;
78453;SDS011;67750;55.832;49.124;2023-03-14T16:07:50;3.02;;;1.40;;
78453;SDS011;67750;55.832;49.124;2023-03-14T16:10:19;2.37;;;1.35;;
78453;SDS011;67750;55.832;49.124;2023-03-14T16:12:49;3.00;;;1.75;;
78453;SDS011;67750;55.832;49.124;2023-03-14T16:15:18;2.75;;;1.60;;
78453;SDS011;67750;55.832;49.124;2023-03-14T16:17:51;3.67;;;1.95;;
78453;SDS011;67750;55.832;49.124;2023-03-14T16:20:19;5.00;;;2.40;;
78453;SDS011;67750;55.832;49.124;2023-03-14T16:22:48;3.65;;;1.45;;
78453;SDS011;67750;55.832;49.124;2023-03-14T16:25:18;4.10;;;1.60;;
78453;SDS011;67750;55.832;49.124;2023-03-14T16:27:47;3.15;;;1.10;;
78453;SDS011;67750;55.832;49.124;2023-03-14T16:30:17;4.90;;;1.90;;
78453;SDS011;67750;55.832;49.124;2023-03-14T16:32:46;2.17;;;1.25;;
78453;SDS011;67750;55.832;49.124;2023-03-14T16:35:16;3.70;;;1.52;;
78453;SDS011;67750;55.832;49.124;2023-03-14T16:37:45;3.83;;;1.50;;
78453;SDS011;67750;55.832;49.124;2023-03-14T16:40:15;3.62;;;1.60;;
78453;SDS011;67750;55.832;49.124;2023-03-14T16:42:44;3.77;;;1.37;;
78453;SDS011;67750;55.832;49.124;2023-03-14T16:45:14;3.85;;;1.85;;
78453;SDS011;67750;55.832;49.124;2023-03-14T16:47:43;4.22;;;1.70;;
78453;SDS011;67750;55.832;49.124;2023-03-14T16:50:13;4.87;;;1.50;;
78453;SDS011;67750;55.832;49.124;2023-03-14T16:52:42;3.55;;;1.50;;
78453;SDS011;67750;55.832;49.124;2023-03-14T16:55:14;3.37;;;1.55;;
78453;SDS011;67750;55.832;49.124;2023-03-14T16:57:43;4.17;;;1.47;;
78453;SDS011;67750;55.832;49.124;2023-03-14T17:00:15;4.42;;;1.70;;
78453;SDS011;67750;55.832;49.124;2023-03-14T17:02:45;4.05;;;1.75;;
78453;SDS011;67750;55.832;49.124;2023-03-14T17:05:14;2.33;;;1.00;;
78453;SDS011;67750;55.832;49.124;2023-03-14T17:07:43;2.42;;;1.20;;
78453;SDS011;67750;55.832;49.124;2023-03-14T17:10:13;4.00;;;1.35;;
78453;SDS011;67750;55.832;49.124;2023-03-14T17:12:43;2.80;;;1.27;;
78453;SDS011;67750;55.832;49.124;2023-03-14T17:15:12;4.28;;;1.40;;
78453;SDS011;67750;55.832;49.124;2023-03-14T17:17:42;3.35;;;1.17;;
78453;SDS011;67750;55.832;49.124;2023-03-14T17:20:11;4.05;;;1.22;;
78453;SDS011;67750;55.832;49.124;2023-03-14T17:22:41;3.77;;;1.30;;
78453;SDS011;67750;55.832;49.124;2023-03-14T17:25:10;1.62;;;0.90;;
78453;SDS011;67750;55.832;49.124;2023-03-14T17:27:40;3.08;;;1.15;;
78453;SDS011;67750;55.832;49.124;2023-03-14T17:30:10;3.33;;;1.32;;
78453;SDS011;67750;55.832;49.124;2023-03-14T17:32:40;2.83;;;1.20;;
78453;SDS011;67750;55.832;49.124;2023-03-14T17:35:10;5.37;;;1.42;;
78453;SDS011;67750;55.832;49.124;2023-03-14T17:37:40;2.58;;;1.32;;
78453;SDS011;67750;55.832;49.124;2023-03-14T17:40:10;3.85;;;1.00;;
78453;SDS011;67750;55.832;49.124;2023-03-14T17:42:40;3.95;;;1.50;;
78453;SDS011;67750;55.832;49.124;2023-03-14T17:45:10;3.60;;;1.27;;
78453;SDS011;67750;55.832;49.124;2023-03-14T17:47:39;3.72;;;1.55;;
78453;SDS011;67750;55.832;49.124;2023-03-14T17:50:10;5.97;;;1.60;;